Time,TemperatureF,DewpointF,PressureIn,WindDirection,WindDirectionDegrees,WindSpeedMPH,WindSpeedGustMPH,Humidity,HourlyPrecipIn,Conditions,Clouds,dailyrainin,SoftwareType,DateUTC
2013-11-03 02:00:00,48.0,39.0,-100.00,WNW,302,0.0,8.0,72,0.00,,,-99.99,,2013-11-03 07:00:00,
2013-11-03 02:42:00,48.0,39.0,-100.00,WNW,302,0.0,8.0,72,0.00,,,-99.99,,2013-11-03 07:42:00,
2013-11-03 02:52:00,48.0,39.0,-100.00,WNW,302,0.0,8.0,72,0.00,,,-99.99,,2013-11-03 07:52:00,
2013-11-03 03:00:00,47.0,39.0,-100.00,WNW,296,4.0,6.0,75,0.00,,,-99.99,,2013-11-03 08:00:00,
2013-11-03 03:42:00,47.0,39.0,-100.00,WNW,296,4.0,6.0,75,0.00,,,-99.99,,2013-11-03 08:42:00,
2013-11-03 03:52:00,47.0,39.0,-100.00,WNW,296,4.0,6.0,75,0.00,,,-99.99,,2013-11-03 08:52:00,
2013-11-03 05:00:00,44.0,39.0,-100.00,WNW,290,3.0,4.0,82,0.00,,,-99.99,,2013-11-03 10:00:00,
2013-11-03 05:42:00,44.0,39.0,-100.00,WNW,290,3.0,4.0,82,0.00,,,-99.99,,2013-11-03 10:42:00,
2013-11-03 05:53:00,44.0,39.0,-100.00,WNW,290,3.0,4.0,82,0.00,,,-99.99,,2013-11-03 10:53:00,
2013-11-03 06:00:00,45.0,40.0,-100.00,NW,313,2.0,6.0,82,0.00,,,-99.99,,2013-11-03 11:00:00,
2013-11-03 06:43:00,45.0,40.0,-100.00,NW,313,2.0,6.0,82,0.00,,,-99.99,,2013-11-03 11:43:00,
2013-11-03 06:52:00,45.0,40.0,-100.00,NW,313,2.0,6.0,82,0.00,,,-99.99,,2013-11-03 11:52:00,
2013-11-03 07:00:00,47.0,41.0,-100.00,NNW,340,4.0,8.0,80,0.00,,,-99.99,,2013-11-03 12:00:00,
2013-11-03 07:42:00,47.0,41.0,-100.00,NNW,340,4.0,8.0,80,0.00,,,-99.99,,2013-11-03 12:42:00,
2013-11-03 07:52:00,47.0,41.0,-100.00,NNW,340,4.0,8.0,80,0.00,,,-99.99,,2013-11-03 12:52:00,
2013-11-03 08:00:00,48.0,38.0,-100.00,North,354,8.0,16.0,70,0.00,,,-99.99,,2013-11-03 13:00:00,
2013-11-03 08:42:00,48.0,38.0,-100.00,North,354,8.0,16.0,70,0.00,,,-99.99,,2013-11-03 13:42:00,
2013-11-03 08:52:00,48.0,38.0,-100.00,North,354,8.0,16.0,70,0.00,,,-99.99,,2013-11-03 13:52:00,
2013-11-03 09:00:00,47.0,37.0,-100.00,NNE,21,9.0,19.0,69,0.00,,,-99.99,,2013-11-03 14:00:00,
2013-11-03 09:42:00,47.0,37.0,-100.00,NNE,21,9.0,19.0,69,0.00,,,-99.99,,2013-11-03 14:42:00,
2013-11-03 09:52:00,47.0,37.0,-100.00,NNE,21,9.0,19.0,69,0.00,,,-99.99,,2013-11-03 14:52:00,
2013-11-03 10:00:00,48.0,36.0,-100.00,North,4,10.0,18.0,63,0.00,,,-99.99,,2013-11-03 15:00:00,
2013-11-03 10:43:00,48.0,36.0,-100.00,North,4,10.0,18.0,63,0.00,,,-99.99,,2013-11-03 15:43:00,
2013-11-03 10:53:00,48.0,36.0,-100.00,North,4,10.0,18.0,63,0.00,,,-99.99,,2013-11-03 15:53:00,
2013-11-03 11:00:00,49.0,36.0,-100.00,NNE,15,4.0,16.0,58,0.00,,,-99.99,,2013-11-03 16:00:00,
2013-11-03 11:43:00,49.0,36.0,-100.00,NNE,15,4.0,16.0,58,0.00,,,-99.99,,2013-11-03 16:43:00,
2013-11-03 11:53:00,49.0,36.0,-100.00,NNE,15,4.0,16.0,58,0.00,,,-99.99,,2013-11-03 16:53:00,
2013-11-03 12:00:00,51.0,34.0,-100.00,North,8,7.0,17.0,52,0.00,,,-99.99,,2013-11-03 17:00:00,
2013-11-03 12:44:00,51.0,34.0,-100.00,North,8,7.0,17.0,52,0.00,,,-99.99,,2013-11-03 17:44:00,
2013-11-03 12:53:00,51.0,34.0,-100.00,North,8,7.0,17.0,52,0.00,,,-99.99,,2013-11-03 17:53:00,
2013-11-03 13:00:00,52.0,33.0,-100.00,North,1,10.0,-999.0,49,-99.99,,,-99.99,,2013-11-03 18:00:00,
2013-11-03 13:42:00,52.0,33.0,-100.00,North,1,10.0,-999.0,49,-99.99,,,-99.99,,2013-11-03 18:42:00,
2013-11-03 13:52:00,52.0,33.0,-100.00,North,1,10.0,-999.0,49,-99.99,,,-99.99,,2013-11-03 18:52:00,
2013-11-03 14:00:00,53.0,32.0,-100.00,NE,50,7.0,19.0,45,0.00,,,-99.99,,2013-11-03 19:00:00,
2013-11-03 14:42:00,53.0,32.0,-100.00,NE,50,7.0,19.0,45,0.00,,,-99.99,,2013-11-03 19:42:00,
2013-11-03 14:53:00,53.0,32.0,-100.00,NE,50,7.0,19.0,45,0.00,,,-99.99,,2013-11-03 19:53:00,
2013-11-03 15:00:00,53.0,27.0,-100.00,NE,42,6.0,18.0,37,0.00,,,-99.99,,2013-11-03 20:00:00,
2013-11-03 15:42:00,53.0,27.0,-100.00,NE,42,6.0,18.0,37,0.00,,,-99.99,,2013-11-03 20:42:00,
2013-11-03 15:52:00,53.0,27.0,-100.00,NE,42,6.0,18.0,37,0.00,,,-99.99,,2013-11-03 20:52:00,
2013-11-03 16:00:00,51.0,22.0,-100.00,North,351,4.0,18.0,32,0.00,,,-99.99,,2013-11-03 21:00:00,
2013-11-03 16:43:00,51.0,22.0,-100.00,North,351,4.0,18.0,32,0.00,,,-99.99,,2013-11-03 21:43:00,
2013-11-03 16:55:00,51.0,22.0,-100.00,North,351,4.0,18.0,32,0.00,,,-99.99,,2013-11-03 21:55:00,
2013-11-03 17:00:00,48.0,23.0,-100.00,North,354,3.0,14.0,38,0.00,,,-99.99,,2013-11-03 22:00:00,
2013-11-03 17:43:00,48.0,23.0,-100.00,North,354,3.0,14.0,38,0.00,,,-99.99,,2013-11-03 22:43:00,
2013-11-03 17:52:00,48.0,23.0,-100.00,North,354,3.0,14.0,38,0.00,,,-99.99,,2013-11-03 22:52:00,
2013-11-03 18:00:00,43.0,26.0,-100.00,NNE,20,3.0,9.0,51,0.00,,,-99.99,,2013-11-03 23:00:00,
2013-11-03 18:42:00,43.0,26.0,-100.00,NNE,20,3.0,9.0,51,0.00,,,-99.99,,2013-11-03 23:42:00,
2013-11-03 18:53:00,43.0,26.0,-100.00,NNE,20,3.0,9.0,51,0.00,,,-99.99,,2013-11-03 23:53:00,
2013-11-03 19:00:00,43.0,24.0,-100.00,NNE,26,6.0,12.0,48,0.00,,,-99.99,,2013-11-04 00:00:00,
2013-11-03 19:42:00,43.0,24.0,-100.00,NNE,26,6.0,12.0,48,0.00,,,-99.99,,2013-11-04 00:42:00,
2013-11-03 19:52:00,43.0,24.0,-100.00,NNE,26,6.0,12.0,48,0.00,,,-99.99,,2013-11-04 00:52:00,
2013-11-03 20:00:00,41.0,21.0,-100.00,North,10,6.0,18.0,45,0.00,,,-99.99,,2013-11-04 01:00:00,
2013-11-03 20:42:00,41.0,21.0,-100.00,North,10,6.0,18.0,45,0.00,,,-99.99,,2013-11-04 01:42:00,
2013-11-03 20:52:00,41.0,21.0,-100.00,North,10,6.0,18.0,45,0.00,,,-99.99,,2013-11-04 01:52:00,
2013-11-03 21:00:00,38.0,22.0,-100.00,North,5,6.0,16.0,52,0.00,,,-99.99,,2013-11-04 02:00:00,
2013-11-03 21:42:00,38.0,22.0,-100.00,North,5,6.0,16.0,52,0.00,,,-99.99,,2013-11-04 02:42:00,
2013-11-03 21:53:00,38.0,22.0,-100.00,North,5,6.0,16.0,52,0.00,,,-99.99,,2013-11-04 02:53:00,
2013-11-03 22:00:00,36.0,23.0,-100.00,NE,38,3.0,8.0,59,0.00,,,-99.99,,2013-11-04 03:00:00,
2013-11-03 22:44:00,36.0,23.0,-100.00,NE,38,3.0,8.0,59,0.00,,,-99.99,,2013-11-04 03:44:00,
2013-11-03 22:54:00,36.0,23.0,-100.00,NE,38,3.0,8.0,59,0.00,,,-99.99,,2013-11-04 03:54:00,
2013-11-03 23:00:00,34.0,22.0,-100.00,North,350,3.0,8.0,61,0.00,,,-99.99,,2013-11-04 04:00:00,
2013-11-03 23:43:00,34.0,22.0,-100.00,North,350,3.0,8.0,61,0.00,,,-99.99,,2013-11-04 04:43:00,
2013-11-03 23:53:00,34.0,22.0,-100.00,North,350,3.0,8.0,61,0.00,,,-99.99,,2013-11-04 04:53:00,